Aérodrome :
LOGIN :

S'inscrire | Disclaimer

   EN    FR    IT 

 










Légende :    VFR   VFR Marginal   IFR   IFR Intensif   IFR Très Intensif
Visi : 
Plafond : 
>= 8 km
>= 3000ft
5 à 8 km
1000 à 3000 ft
1500m à 5 km
500 à 1000 ft
800 à 1500m
200 à 500 ft
< 800m
< 200 ft
Symboles :   Orages  Brouillard  Fortes neiges  Fortes précipitations  Vent > 20 kt
SIGMETs :   Divers  Orages  Givrage  Turbulence  Onde Orograph.  Cendres Volcan.






- Altitude de l'aérodrome : 353 ft
- Code IATA : ZAG


LDZA - Zagreb Pleso

DERNIER METAR :
  • 071530Z 08007KT 340V130 CAVOK 29/15 Q1016 NOSIG

METARs EXPIRÉS :
  • 071500Z 03007KT 340V120 CAVOK 29/15 Q1016 NOSIG
  • 071430Z 09005KT 020V170 CAVOK 29/15 Q1017 NOSIG
  • 071400Z 02004KT 300V110 9999 FEW048 28/14 Q1017 NOSIG
  • 071330Z 07004KT 350V160 9999 SCT045 28/15 Q1017 NOSIG
  • 071300Z VRB04KT 9999 BKN045 28/15 Q1018 NOSIG

TAF TAF LDZA
Valide du 07 à 12h jusqu'au 08 à 12h UTC


071125Z 0712/0812 03006KT 9999 SCT045 TX28/0714Z TN18/0803Z
PROB30
TEMPO 0808/0812 SHRA FEW040TCU BKN045
ATIS : +385 1 6-259-214



MET'MAP, la Météo Aéronautique d'un coup d'oeil ! - Copyright ORBIFLY Décembre 2007 - Disclaimer

ORBIFLY MET'MAP TEAM :

Programmation & Développement : Alexandra Zaïnal
Sur une idée originale de : Baudouin d'Aumeries
Soutien technique & logistique : Manuel Goepfert
Assistance : Marc-Olivier Méhu




SOURCES & CREDITS :

   NOAA